Time;durP1;ratioP1;P1;durP2;ratioP2;P2;SDS_P1;SDS_P2;PMS_P1;PMS_P2;Temp;Humidity;BMP_temperature;BMP_pressure;BME280_temperature;BME280_humidity;BME280_pressure;Samples;Min_cycle;Max_cycle;Signal;HPM_P1;HPM_P2
2022/12/05 00:00:56;;;;;;;16.20;9.00;;;;;;;-9.85;75.17;102485.13;5031814;28;20029;-63
2022/12/05 00:03:22;;;;;;;17.48;10.18;;;;;;;-9.83;75.06;102487.09;5043447;28;20325;-65
2022/12/05 00:05:48;;;;;;;15.20;8.93;;;;;;;-9.76;74.07;102479.47;5025594;28;20085;-64
2022/12/05 00:08:14;;;;;;;17.48;9.77;;;;;;;-9.71;75.31;102482.47;5042690;28;20049;-65
2022/12/05 00:10:40;;;;;;;14.77;9.35;;;;;;;-9.71;74.29;102484.97;5045024;28;20044;-65
2022/12/05 00:13:06;;;;;;;16.52;9.90;;;;;;;-9.65;73.53;102480.59;5037331;28;20352;-65
2022/12/05 00:15:35;;;;;;;15.32;8.85;;;;;;;-9.92;74.22;102488.59;5024980;28;20041;-64
2022/12/05 00:18:02;;;;;;;15.57;9.05;;;;;;;-9.97;74.96;102475.59;5025610;28;20322;-65
2022/12/05 00:20:28;;;;;;;16.38;9.43;;;;;;;-9.75;74.14;102471.25;5043783;28;20029;-64
2022/12/05 00:22:54;;;;;;;14.55;9.52;;;;;;;-9.66;73.41;102471.31;5042423;28;20026;-66
2022/12/05 00:25:19;;;;;;;22.10;10.32;;;;;;;-9.85;73.90;102472.59;5043515;28;20044;-66
2022/12/05 00:27:45;;;;;;;17.67;9.70;;;;;;;-9.88;73.81;102468.16;5044776;28;20040;-65
2022/12/05 00:30:11;;;;;;;18.20;9.80;;;;;;;-9.92;73.82;102448.50;5041389;28;20325;-65
2022/12/05 00:32:36;;;;;;;14.85;9.27;;;;;;;-9.85;74.67;102465.09;5044512;28;20040;-65
2022/12/05 00:35:02;;;;;;;15.45;9.38;;;;;;;-9.99;74.62;102462.03;5029408;28;20036;-65
2022/12/05 00:37:28;;;;;;;15.45;8.93;;;;;;;-9.94;74.79;102457.50;5024998;28;20206;-65
2022/12/05 00:39:54;;;;;;;19.23;10.27;;;;;;;-9.96;74.17;102462.34;5024833;28;20033;-65
2022/12/05 00:42:19;;;;;;;19.98;10.30;;;;;;;-9.90;73.13;102470.50;5026133;28;20029;-66
2022/12/05 00:44:48;;;;;;;16.30;9.65;;;;;;;-9.91;72.94;102467.84;5030819;28;20057;-66
2022/12/05 00:47:14;;;;;;;18.15;9.60;;;;;;;-10.01;74.00;102465.97;5041199;28;20034;-64
2022/12/05 00:49:39;;;;;;;19.17;10.18;;;;;;;-10.11;73.95;102463.22;5032372;28;20072;-65
2022/12/05 00:52:05;;;;;;;15.98;8.82;;;;;;;-10.18;75.57;102466.66;5031874;28;20029;-65
2022/12/05 00:54:30;;;;;;;17.55;9.90;;;;;;;-10.11;74.61;102464.09;5041680;28;20060;-65
2022/12/05 00:56:56;;;;;;;15.40;9.02;;;;;;;-9.91;74.42;102462.81;5024371;28;20030;-65
2022/12/05 00:59:22;;;;;;;13.05;8.10;;;;;;;-10.14;73.82;102447.84;5042015;28;20034;-65
2022/12/05 01:01:49;;;;;;;16.67;9.05;;;;;;;-10.03;73.97;102461.50;5031290;28;20022;-64
2022/12/05 01:04:21;;;;;;;18.08;9.73;;;;;;;-10.20;74.58;102472.22;5024358;28;20089;-65
2022/12/05 01:06:47;;;;;;;17.08;9.27;;;;;;;-10.05;73.98;102453.81;5028702;28;20064;-66
2022/12/05 01:09:16;;;;;;;20.48;8.82;;;;;;;-10.08;73.23;102456.91;5034911;28;20222;-65
2022/12/05 01:11:43;;;;;;;14.73;9.10;;;;;;;-10.35;74.07;102424.81;5023996;28;20374;-65
2022/12/05 01:14:11;;;;;;;15.98;9.18;;;;;;;-10.32;75.71;102417.59;5039753;28;20107;-66
2022/12/05 01:16:38;;;;;;;15.82;9.63;;;;;;;-10.09;75.55;102445.13;5043634;28;20043;-65
2022/12/05 01:19:09;;;;;;;17.02;9.68;;;;;;;-10.13;73.93;102424.56;5037031;28;20096;-64
2022/12/05 01:21:34;;;;;;;14.13;9.15;;;;;;;-9.99;75.35;102431.03;5029117;28;20041;-64
2022/12/05 01:24:00;;;;;;;13.45;9.30;;;;;;;-9.89;74.73;102432.19;5024210;28;20033;-64
2022/12/05 01:26:25;;;;;;;14.70;9.02;;;;;;;-9.89;73.60;102432.19;5041712;28;20313;-65
2022/12/05 01:28:51;;;;;;;19.52;10.27;;;;;;;-9.94;72.61;102423.28;5030583;28;20364;-64
2022/12/05 01:31:22;;;;;;;15.55;9.35;;;;;;;-9.89;74.89;102426.25;5032141;28;20021;-65
2022/12/05 01:33:48;;;;;;;19.02;9.70;;;;;;;-10.01;73.92;102425.88;5039066;28;20036;-66
2022/12/05 01:36:14;;;;;;;16.85;9.45;;;;;;;-9.91;73.42;102417.72;5023832;28;20038;-65
2022/12/05 01:38:40;;;;;;;14.85;9.00;;;;;;;-10.13;74.45;102417.03;5043216;28;20029;-66
2022/12/05 01:41:09;;;;;;;17.40;8.52;;;;;;;-10.15;75.32;102399.34;5041708;28;20076;-65
2022/12/05 01:44:06;;;;;;;15.80;10.30;;;;;;;-10.24;75.56;102415.91;5031915;28;20025;-66
2022/12/05 01:46:35;;;;;;;15.57;9.13;;;;;;;-10.38;73.84;102386.94;5023397;28;20038;-64
2022/12/05 01:49:14;;;;;;;15.48;8.90;;;;;;;-10.32;73.99;102402.56;5029770;28;20029;-64
2022/12/05 01:51:50;;;;;;;13.13;8.75;;;;;;;-10.28;75.59;102387.13;5039284;28;20064;-65
2022/12/05 01:54:18;;;;;;;14.98;9.15;;;;;;;-10.38;73.63;102386.03;5043495;28;20075;-65
2022/12/05 01:56:48;;;;;;;15.20;9.13;;;;;;;-10.40;74.33;102388.41;5023508;28;20170;-65
2022/12/05 01:59:16;;;;;;;14.10;8.68;;;;;;;-10.16;74.37;102404.19;5039761;28;20100;-64
2022/12/05 02:01:41;;;;;;;17.08;9.48;;;;;;;-10.10;72.62;102404.88;5031425;28;20025;-64
2022/12/05 02:04:07;;;;;;;16.13;9.05;;;;;;;-10.19;73.09;102401.38;5030383;28;20029;-64
2022/12/05 02:06:33;;;;;;;14.88;9.20;;;;;;;-10.10;72.59;102410.75;5040929;28;20079;-65
2022/12/05 02:08:59;;;;;;;15.15;8.80;;;;;;;-10.09;74.21;102382.47;5023464;28;20049;-65
2022/12/05 02:11:26;;;;;;;17.05;9.23;;;;;;;-10.04;74.96;102397.09;5033182;28;20033;-65
2022/12/05 02:14:31;;;;;;;14.23;8.80;;;;;;;-10.36;73.03;102400.53;5025078;28;20053;-65
2022/12/05 02:17:32;;;;;;;13.57;8.75;;;;;;;-10.37;73.92;102371.19;5031485;28;20041;-65
2022/12/05 02:20:27;;;;;;;17.38;10.02;;;;;;;-10.29;73.53;102364.44;5043052;28;20026;-64
2022/12/05 02:23:24;;;;;;;15.50;8.60;;;;;;;-10.31;73.82;102371.78;5048813;28;20106;-64
2022/12/05 02:26:22;;;;;;;15.60;9.88;;;;;;;-10.18;74.76;102385.63;5035253;28;20072;-65
2022/12/05 02:29:25;;;;;;;16.88;9.40;;;;;;;-10.18;73.65;102385.63;5046050;28;20067;-66
2022/12/05 02:32:00;;;;;;;17.73;9.73;;;;;;;-10.19;74.73;102386.34;5035168;28;20263;-65
2022/12/05 02:34:53;;;;;;;15.57;9.45;;;;;;;-10.24;73.34;102378.34;5032036;28;20029;-65
2022/12/05 02:37:47;;;;;;;18.08;9.85;;;;;;;-10.64;73.53;102365.00;5042971;28;20037;-65
2022/12/05 02:40:32;;;;;;;15.73;9.65;;;;;;;-10.55;74.93;102381.75;5034070;28;20056;-65
2022/12/05 02:43:10;;;;;;;16.55;9.68;;;;;;;-10.70;76.48;102383.47;5037435;28;20041;-65
2022/12/05 02:45:38;;;;;;;17.65;9.85;;;;;;;-10.90;75.01;102341.28;5040262;28;20045;-64
2022/12/05 02:48:05;;;;;;;18.35;9.43;;;;;;;-10.89;75.12;102340.56;5023075;28;20034;-65
2022/12/05 02:50:35;;;;;;;16.27;9.82;;;;;;;-10.99;76.30;102349.56;5022945;28;20045;-65
2022/12/05 02:53:09;;;;;;;16.58;9.85;;;;;;;-10.72;75.72;102375.81;5036633;28;20034;-65
2022/12/05 02:55:36;;;;;;;17.10;9.35;;;;;;;-10.66;75.97;102368.97;5033262;28;20026;-65
2022/12/05 02:58:11;;;;;;;19.15;9.50;;;;;;;-10.79;75.02;102341.75;5027247;28;20022;-64
2022/12/05 03:00:41;;;;;;;14.07;8.75;;;;;;;-10.86;75.21;102345.91;5026572;28;20049;-65
2022/12/05 03:03:20;;;;;;;17.02;10.25;;;;;;;-10.74;76.45;102358.84;5026562;28;20148;-65
2022/12/05 03:06:04;;;;;;;17.35;9.50;;;;;;;-10.89;75.29;102345.56;5037574;28;20096;-63
2022/12/05 03:09:21;;;;;;;18.85;10.50;;;;;;;-10.70;77.01;102360.94;5043655;28;20097;-64
2022/12/05 03:11:58;;;;;;;16.90;9.68;;;;;;;-10.65;75.66;102362.34;5054256;28;20097;-65
2022/12/05 03:14:37;;;;;;;16.15;9.98;;;;;;;-10.71;73.98;102327.53;5029138;28;20046;-63
2022/12/05 03:17:09;;;;;;;17.13;9.85;;;;;;;-10.72;75.56;102323.25;5040122;28;20332;-65
2022/12/05 03:19:51;;;;;;;19.45;10.13;;;;;;;-10.59;73.64;102350.47;5035885;28;20036;-65
2022/12/05 03:22:36;;;;;;;14.77;10.00;;;;;;;-10.94;74.55;102332.56;5033156;28;20103;-64
2022/12/05 03:25:03;;;;;;;17.15;10.15;;;;;;;-10.82;75.80;102363.03;5040654;28;20093;-65
2022/12/05 03:27:37;;;;;;;18.02;9.82;;;;;;;-10.71;74.87;102350.06;5027645;28;20017;-65
2022/12/05 03:30:07;;;;;;;14.13;9.15;;;;;;;-10.77;75.12;102360.28;5046026;28;20037;-65
2022/12/05 03:32:44;;;;;;;14.75;9.40;;;;;;;-10.63;75.23;102359.28;5038726;28;20036;-66
2022/12/05 03:35:13;;;;;;;17.42;9.07;;;;;;;-10.88;74.46;102342.34;5040585;28;20033;-65
2022/12/05 03:37:55;;;;;;;16.35;9.27;;;;;;;-10.72;76.39;102330.75;5045808;28;20032;-65
2022/12/05 03:40:40;;;;;;;18.50;9.98;;;;;;;-10.57;76.52;102335.59;5037813;28;20029;-66
2022/12/05 03:43:36;;;;;;;17.88;9.60;;;;;;;-10.91;75.11;102334.50;5028041;28;20360;-65
2022/12/05 03:46:12;;;;;;;15.65;9.15;;;;;;;-10.90;75.51;102326.28;5031108;28;20033;-65
2022/12/05 03:48:52;;;;;;;16.48;9.18;;;;;;;-11.03;75.42;102299.97;5045218;28;20029;-65
2022/12/05 03:51:22;;;;;;;15.13;9.05;;;;;;;-10.95;75.17;102299.13;5045399;28;20025;-65
2022/12/05 03:53:57;;;;;;;12.23;8.52;;;;;;;-11.07;74.36;102297.84;5025702;28;20052;-65
2022/12/05 03:56:30;;;;;;;14.95;9.40;;;;;;;-10.85;75.58;102322.66;5025580;28;20029;-65
2022/12/05 03:59:13;;;;;;;13.80;8.80;;;;;;;-11.11;74.37;102295.72;5036923;28;20033;-65
2022/12/05 04:01:40;;;;;;;16.73;9.35;;;;;;;-10.96;74.34;102317.41;5035098;28;20037;-66
2022/12/05 04:04:27;;;;;;;15.50;9.45;;;;;;;-10.99;76.10;102309.53;5033436;28;20096;-66
2022/12/05 04:06:55;;;;;;;15.15;9.02;;;;;;;-11.16;74.90;102286.84;5030455;28;20041;-66
2022/12/05 04:09:30;;;;;;;18.05;9.55;;;;;;;-10.87;75.33;102312.50;5025313;28;20094;-67
2022/12/05 04:12:06;;;;;;;17.15;9.20;;;;;;;-10.76;75.88;102323.63;5025323;28;20026;-67
2022/12/05 04:14:46;;;;;;;15.20;8.27;;;;;;;-10.87;75.04;102291.56;5042621;28;20097;-66
2022/12/05 04:17:17;;;;;;;16.25;8.55;;;;;;;-10.80;75.06;102314.00;5030511;28;20076;-66
2022/12/05 04:22:50;;;;;;;17.38;9.52;;;;;;;-10.66;74.04;102308.91;5040114;28;20094;-67
2022/12/05 04:25:32;;;;;;;14.73;9.27;;;;;;;-10.88;75.17;102305.69;5038059;28;20041;-66
2022/12/05 04:28:06;;;;;;;13.95;9.20;;;;;;;-10.95;75.12;102309.16;5025330;28;20057;-66
2022/12/05 04:30:41;;;;;;;22.08;11.70;;;;;;;-10.83;74.59;102296.19;5024945;28;20052;-66
2022/12/05 04:33:25;;;;;;;17.15;10.55;;;;;;;-11.00;75.41;102277.75;5024546;28;20032;-66
2022/12/05 04:36:20;;;;;;;13.35;9.52;;;;;;;-11.16;75.78;102266.81;5044701;28;20033;-66
2022/12/05 04:39:04;;;;;;;15.93;9.27;;;;;;;-10.85;74.68;102285.13;5043656;28;20049;-66
2022/12/05 04:41:40;;;;;;;14.13;8.82;;;;;;;-11.07;73.76;102259.41;5031487;28;20277;-68
2022/12/05 04:44:14;;;;;;;17.38;9.85;;;;;;;-11.03;75.99;102274.94;5033189;28;20498;-66
2022/12/05 04:46:43;;;;;;;15.90;9.35;;;;;;;-11.34;76.49;102260.72;5033112;28;20206;-67
2022/12/05 04:49:14;;;;;;;15.48;8.95;;;;;;;-11.23;76.30;102255.25;5043034;28;20179;-65
2022/12/05 04:51:42;;;;;;;14.15;9.02;;;;;;;-11.09;75.21;102250.88;5044094;28;20226;-65
2022/12/05 04:54:14;;;;;;;14.35;9.77;;;;;;;-11.01;74.51;102248.47;5043995;28;20041;-66
2022/12/05 04:56:42;;;;;;;14.85;8.82;;;;;;;-11.04;74.22;102250.63;5025863;28;20040;-64
2022/12/05 04:59:09;;;;;;;15.45;9.52;;;;;;;-10.87;74.50;102266.53;5040133;28;20021;-65
2022/12/05 05:01:47;;;;;;;17.25;9.75;;;;;;;-10.90;74.89;102267.13;5034819;28;20162;-64
2022/12/05 05:04:20;;;;;;;14.43;9.23;;;;;;;-10.78;74.59;102277.53;5028630;28;20056;-64
2022/12/05 05:06:46;;;;;;;13.85;8.80;;;;;;;-10.86;75.07;102253.31;5038277;28;20033;-65
2022/12/05 05:09:11;;;;;;;17.73;9.25;;;;;;;-10.99;74.41;102242.00;5023432;28;20040;-66
2022/12/05 05:11:37;;;;;;;15.50;9.13;;;;;;;-10.82;75.48;102260.41;5040561;28;20029;-66
2022/12/05 05:14:04;;;;;;;12.93;8.30;;;;;;;-10.87;75.37;102264.03;5042940;28;20302;-66
2022/12/05 05:16:33;;;;;;;14.48;9.48;;;;;;;-10.90;74.73;102278.72;5034937;28;20306;-65
2022/12/05 05:18:59;;;;;;;13.85;9.25;;;;;;;-11.28;74.82;102259.78;5023082;28;20121;-66
2022/12/05 05:21:27;;;;;;;18.92;9.18;;;;;;;-11.17;74.67;102270.94;5028752;28;20048;-66
2022/12/05 05:23:54;;;;;;;18.17;9.77;;;;;;;-11.15;74.07;102272.00;5023820;28;20026;-65
2022/12/05 05:26:21;;;;;;;15.43;9.18;;;;;;;-11.12;74.50;102269.81;5024541;28;20053;-66
2022/12/05 05:28:48;;;;;;;19.65;10.40;;;;;;;-11.20;75.32;102273.13;5023449;28;20038;-66
2022/12/05 05:31:15;;;;;;;15.88;9.30;;;;;;;-11.04;75.05;102257.22;5029610;28;20221;-66
2022/12/05 05:33:40;;;;;;;20.20;10.02;;;;;;;-11.11;74.52;102271.59;5041902;28;20033;-66
2022/12/05 05:36:12;;;;;;;16.92;9.20;;;;;;;-11.20;76.10;102245.63;5023587;28;20070;-66
2022/12/05 05:38:41;;;;;;;15.73;9.60;;;;;;;-11.08;74.88;102281.06;5023247;28;20108;-66
2022/12/05 05:41:16;;;;;;;17.52;9.85;;;;;;;-10.88;75.21;102262.28;5027685;28;20433;-66
2022/12/05 05:43:42;;;;;;;13.85;8.77;;;;;;;-11.12;75.49;102261.44;5032086;28;20040;-65
2022/12/05 05:46:08;;;;;;;15.57;9.55;;;;;;;-11.17;74.92;102260.03;5037556;28;20037;-65
2022/12/05 05:48:34;;;;;;;18.25;9.57;;;;;;;-11.27;74.75;102253.19;5032801;28;20037;-66
2022/12/05 05:51:01;;;;;;;15.77;9.70;;;;;;;-11.21;75.14;102265.47;5033976;28;20185;-65
2022/12/05 05:53:27;;;;;;;16.70;9.00;;;;;;;-11.41;74.97;102241.69;5037642;28;20033;-65
2022/12/05 05:55:53;;;;;;;19.45;9.05;;;;;;;-11.33;76.41;102250.91;5032044;28;20060;-67
2022/12/05 05:58:19;;;;;;;17.35;10.43;;;;;;;-11.20;74.77;102239.69;5023446;28;20366;-65
2022/12/05 06:00:45;;;;;;;18.92;10.07;;;;;;;-11.14;75.01;102240.38;5028621;28;20049;-66
2022/12/05 06:03:10;;;;;;;18.33;10.40;;;;;;;-11.00;75.56;102245.25;5034502;28;20027;-70
2022/12/05 06:05:36;;;;;;;17.45;9.60;;;;;;;-11.23;75.46;102246.88;5028398;28;20028;-67
2022/12/05 06:08:02;;;;;;;13.10;9.18;;;;;;;-11.28;74.94;102236.41;5030093;28;20037;-67
2022/12/05 06:10:28;;;;;;;16.33;9.27;;;;;;;-11.17;74.21;102235.03;5030425;28;20280;-67
2022/12/05 06:12:55;;;;;;;16.25;9.52;;;;;;;-11.09;74.62;102243.38;5030134;28;20026;-67
2022/12/05 06:15:21;;;;;;;18.52;10.15;;;;;;;-11.02;75.51;102244.16;5030855;28;20214;-67
2022/12/05 06:17:47;;;;;;;18.58;10.20;;;;;;;-10.91;75.54;102241.91;5031452;28;20191;-67
2022/12/05 06:20:12;;;;;;;17.13;9.82;;;;;;;-11.02;74.38;102236.66;5035237;28;20076;-67
2022/12/05 06:22:38;;;;;;;16.52;9.77;;;;;;;-11.00;73.22;102242.75;5030678;28;20030;-66
2022/12/05 06:25:05;;;;;;;15.52;10.50;;;;;;;-11.00;74.73;102245.25;5032938;28;20194;-68
2022/12/05 06:27:31;;;;;;;14.18;9.50;;;;;;;-11.01;73.68;102240.06;5040795;28;20080;-65
2022/12/05 06:29:57;;;;;;;17.30;9.00;;;;;;;-10.84;73.34;102236.88;5024545;28;20045;-67
2022/12/05 06:32:23;;;;;;;16.70;9.55;;;;;;;-10.71;74.44;102239.03;5029290;28;20112;-66
2022/12/05 06:34:48;;;;;;;16.70;9.80;;;;;;;-10.54;73.54;102245.81;5031050;28;20029;-65
2022/12/05 06:37:14;;;;;;;19.20;10.23;;;;;;;-10.63;72.85;102233.22;5038757;28;20044;-67
2022/12/05 06:39:40;;;;;;;14.95;9.10;;;;;;;-10.55;72.79;102244.03;5029764;28;20029;-66
2022/12/05 06:42:05;;;;;;;15.73;8.82;;;;;;;-10.69;73.75;102242.59;5027360;28;20428;-66
2022/12/05 06:44:31;;;;;;;18.00;9.18;;;;;;;-10.86;72.89;102239.19;5027126;28;20021;-66
2022/12/05 06:46:56;;;;;;;16.77;9.95;;;;;;;-10.80;72.54;102226.44;5037950;28;20033;-65
2022/12/05 06:49:25;;;;;;;15.18;9.48;;;;;;;-10.79;73.98;102229.13;5040303;28;20033;-67
2022/12/05 06:51:52;;;;;;;16.95;9.38;;;;;;;-10.75;73.49;102235.31;5028809;28;20034;-67
2022/12/05 06:54:18;;;;;;;16.05;10.27;;;;;;;-10.53;73.88;102222.53;5043599;28;20022;-68
2022/12/05 06:56:43;;;;;;;14.73;9.45;;;;;;;-10.86;74.28;102218.28;5035087;28;20031;-67
2022/12/05 06:59:09;;;;;;;16.73;9.30;;;;;;;-10.63;72.64;102219.09;5042054;28;20041;-68
2022/12/05 07:01:38;;;;;;;21.90;10.43;;;;;;;-10.44;72.11;102214.38;5043183;28;20032;-66
2022/12/05 07:04:10;;;;;;;15.10;8.80;;;;;;;-10.64;72.77;102199.78;5041572;28;20032;-66
2022/12/05 07:06:36;;;;;;;17.10;9.27;;;;;;;-10.50;73.50;102213.75;5045817;28;20025;-66
2022/12/05 07:09:03;;;;;;;15.00;9.77;;;;;;;-10.42;72.13;102215.44;5026256;28;20310;-65
2022/12/05 07:11:29;;;;;;;16.80;9.38;;;;;;;-10.27;73.57;102220.22;5041705;28;20021;-66
2022/12/05 07:13:54;;;;;;;20.45;10.85;;;;;;;-10.33;71.43;102225.47;5036898;28;20021;-66
2022/12/05 07:16:20;;;;;;;18.33;9.63;;;;;;;-10.33;72.74;102222.97;5035559;28;20064;-66
2022/12/05 07:18:45;;;;;;;16.23;9.77;;;;;;;-10.18;71.12;102211.13;5033091;28;20037;-66
2022/12/05 07:21:14;;;;;;;16.77;10.13;;;;;;;-9.96;71.19;102209.22;5033972;28;20037;-66
2022/12/05 07:23:44;;;;;;;16.90;9.13;;;;;;;-10.05;72.42;102210.78;5034859;28;20025;-65
2022/12/05 07:26:15;;;;;;;15.30;9.70;;;;;;;-9.90;70.63;102201.44;5035771;28;20017;-68
2022/12/05 07:28:41;;;;;;;17.10;9.77;;;;;;;-9.75;69.75;102200.50;5039676;28;20049;-66
2022/12/05 07:31:15;;;;;;;14.55;9.13;;;;;;;-9.67;71.04;102208.78;5026004;28;20072;-67
2022/12/05 07:33:41;;;;;;;15.43;9.00;;;;;;;-9.68;70.97;102201.97;5026324;28;20029;-68
2022/12/05 07:36:12;;;;;;;16.55;9.40;;;;;;;-9.78;69.77;102191.75;5036601;28;20032;-67
2022/12/05 07:38:40;;;;;;;15.15;8.57;;;;;;;-9.67;70.20;102192.84;5034429;28;20021;-68
2022/12/05 07:41:26;;;;;;;17.30;9.20;;;;;;;-9.53;69.90;102200.13;5033869;28;20029;-67
2022/12/05 07:43:53;;;;;;;15.40;8.90;;;;;;;-9.30;68.73;102192.38;5035918;28;20027;-66
2022/12/05 07:46:18;;;;;;;13.57;7.88;;;;;;;-9.34;69.61;102190.31;5038433;28;20061;-66
2022/12/05 07:48:44;;;;;;;17.00;9.15;;;;;;;-9.21;68.77;102185.75;5031655;28;20037;-67
2022/12/05 07:51:10;;;;;;;15.25;8.82;;;;;;;-9.07;69.19;102187.13;5034163;28;20046;-66
2022/12/05 07:53:37;;;;;;;13.80;8.43;;;;;;;-9.07;69.83;102176.19;5036133;28;20025;-66
2022/12/05 07:56:05;;;;;;;13.93;8.23;;;;;;;-9.08;67.47;102165.25;5033216;28;20321;-66
2022/12/05 07:58:32;;;;;;;13.80;7.95;;;;;;;-8.92;68.16;102176.78;5033465;28;20022;-67
2022/12/05 08:01:18;;;;;;;13.82;7.72;;;;;;;-9.11;67.18;102154.03;5037604;28;20017;-67
2022/12/05 08:03:44;;;;;;;14.00;7.90;;;;;;;-8.93;67.06;102173.41;5034939;28;20030;-67
2022/12/05 08:06:15;;;;;;;14.82;7.70;;;;;;;-8.67;67.83;102172.53;5033222;28;20076;-66
2022/12/05 08:08:42;;;;;;;10.88;7.15;;;;;;;-8.68;65.88;102168.25;5030966;28;20105;-67
2022/12/05 08:11:13;;;;;;;12.23;7.57;;;;;;;-9.01;66.59;102164.25;5034384;28;20026;-67
2022/12/05 08:13:40;;;;;;;14.13;8.43;;;;;;;-8.66;66.63;102171.81;5032273;28;20150;-68
2022/12/05 08:16:11;;;;;;;13.57;7.55;;;;;;;-8.76;65.76;102146.56;5034237;28;20026;-67
2022/12/05 08:18:37;;;;;;;18.17;8.50;;;;;;;-8.82;66.18;102166.03;5032128;28;20036;-67
2022/12/05 08:21:09;;;;;;;17.27;8.27;;;;;;;-9.15;67.46;102159.50;5033795;28;20117;-67
2022/12/05 08:23:36;;;;;;;13.30;7.75;;;;;;;-9.23;66.95;102163.78;5032600;28;20021;-67
2022/12/05 08:26:06;;;;;;;15.10;8.35;;;;;;;-9.10;66.88;102150.81;5037878;28;20025;-65
2022/12/05 08:28:32;;;;;;;15.38;8.40;;;;;;;-9.15;65.90;102160.38;5035562;28;20026;-66
2022/12/05 08:31:09;;;;;;;14.05;7.93;;;;;;;-9.28;67.52;102135.69;5041966;28;20042;-65
2022/12/05 08:33:35;;;;;;;12.65;7.90;;;;;;;-9.20;67.68;102144.88;5024539;28;20168;-67
2022/12/05 08:36:03;;;;;;;15.30;8.60;;;;;;;-8.99;67.96;102152.75;5043593;28;20310;-66
2022/12/05 08:38:29;;;;;;;11.55;7.75;;;;;;;-8.87;66.55;102136.34;5028566;28;20033;-67
2022/12/05 08:40:55;;;;;;;13.57;8.57;;;;;;;-8.65;67.07;102135.88;5029918;28;20026;-67
2022/12/05 08:43:21;;;;;;;12.88;8.73;;;;;;;-8.48;66.03;102129.09;5032822;28;20207;-67
2022/12/05 08:45:52;;;;;;;14.57;8.95;;;;;;;-8.30;65.35;102119.84;5037894;28;20034;-67
2022/12/05 08:48:18;;;;;;;14.35;8.43;;;;;;;-8.30;64.02;102134.94;5041300;28;20056;-67
2022/12/05 08:50:44;;;;;;;13.88;8.82;;;;;;;-8.17;65.11;102128.66;5028816;28;20282;-68
2022/12/05 08:53:10;;;;;;;15.13;8.82;;;;;;;-8.37;65.10;102133.47;5031025;28;20041;-68
2022/12/05 08:55:36;;;;;;;15.65;9.18;;;;;;;-8.23;64.89;102123.06;5035411;28;20033;-67
2022/12/05 08:58:02;;;;;;;14.02;8.95;;;;;;;-8.26;64.83;102119.41;5034915;28;20070;-67
2022/12/05 09:00:28;;;;;;;16.98;9.55;;;;;;;-8.43;65.84;102110.28;5031952;28;20021;-68
2022/12/05 09:02:54;;;;;;;16.15;9.15;;;;;;;-8.54;65.09;102111.81;5033445;28;20316;-67
2022/12/05 09:05:20;;;;;;;16.63;9.68;;;;;;;-8.06;66.51;102122.16;5032374;28;20210;-67
2022/12/05 09:07:46;;;;;;;17.30;9.55;;;;;;;-7.98;65.11;102110.28;5032639;28;20052;-67
2022/12/05 09:10:11;;;;;;;16.45;9.18;;;;;;;-7.96;65.27;102115.47;5038455;28;20314;-66
2022/12/05 09:12:38;;;;;;;16.35;9.10;;;;;;;-7.55;63.24;102120.88;5024094;28;20032;-67
2022/12/05 09:15:09;;;;;;;15.45;8.68;;;;;;;-7.92;63.44;102105.84;5037411;28;20049;-68
2022/12/05 09:17:34;;;;;;;15.43;9.40;;;;;;;-7.92;63.72;102093.25;5028748;28;20034;-68
2022/12/05 09:20:00;;;;;;;15.43;9.20;;;;;;;-8.08;64.40;102098.50;5023979;28;20098;-67
2022/12/05 09:22:26;;;;;;;14.45;8.98;;;;;;;-8.05;64.34;102106.31;5029205;28;20040;-68
2022/12/05 09:24:51;;;;;;;17.60;9.68;;;;;;;-8.17;64.75;102090.97;5042800;28;20321;-66
2022/12/05 09:27:17;;;;;;;16.42;9.57;;;;;;;-8.57;64.44;102097.31;5036467;28;20333;-67
2022/12/05 09:29:43;;;;;;;18.00;10.48;;;;;;;-8.54;65.83;102097.59;5031070;28;20033;-67
2022/12/05 09:32:09;;;;;;;13.55;9.13;;;;;;;-8.62;65.91;102098.53;5023784;28;20029;-66
2022/12/05 09:34:38;;;;;;;15.07;9.40;;;;;;;-8.54;65.16;102090.06;5028973;28;20179;-66
2022/12/05 09:37:06;;;;;;;19.25;9.95;;;;;;;-8.27;65.60;102097.53;5042384;28;20021;-67
2022/12/05 09:39:32;;;;;;;16.92;9.65;;;;;;;-8.46;66.49;102079.84;5043336;28;20084;-66
2022/12/05 09:42:17;;;;;;;15.73;9.23;;;;;;;-8.20;65.40;102079.75;5025585;28;20383;-67
2022/12/05 09:44:55;;;;;;;14.30;9.32;;;;;;;-8.30;64.71;102082.16;5023349;28;20085;-67
2022/12/05 09:47:41;;;;;;;14.30;9.75;;;;;;;-8.17;65.28;102054.91;5036553;28;20033;-67
2022/12/05 09:50:23;;;;;;;18.67;9.93;;;;;;;-8.43;65.40;102080.13;5032593;28;20217;-67
2022/12/05 09:53:15;;;;;;;15.43;9.25;;;;;;;-8.43;65.68;102070.97;5031521;28;20380;-66
2022/12/05 09:55:51;;;;;;;18.33;10.13;;;;;;;-8.24;65.84;102071.03;5035579;28;20018;-67
2022/12/05 09:58:31;;;;;;;17.90;9.73;;;;;;;-8.09;65.29;102040.53;5023474;28;20139;-66
2022/12/05 10:01:18;;;;;;;15.07;8.90;;;;;;;-8.04;64.25;102067.84;5024480;28;20071;-67
2022/12/05 10:04:26;;;;;;;17.80;9.82;;;;;;;-7.95;65.12;102052.75;5042971;28;20090;-67
2022/12/05 10:07:13;;;;;;;16.00;9.75;;;;;;;-7.94;64.26;102057.00;5033088;28;20372;-67
2022/12/05 10:10:17;;;;;;;16.85;8.85;;;;;;;-7.68;65.30;102055.97;5037673;28;20305;-66
2022/12/05 10:13:21;;;;;;;16.25;9.35;;;;;;;-7.75;63.79;102058.69;5044171;28;20202;-66
2022/12/05 10:15:51;;;;;;;15.35;8.30;;;;;;;-8.19;64.46;102054.78;5023272;28;20326;-67
2022/12/05 10:18:33;;;;;;;15.75;8.85;;;;;;;-7.90;64.64;102043.09;5033295;28;20032;-69
2022/12/05 10:21:11;;;;;;;15.15;8.75;;;;;;;-7.94;63.94;102038.53;5025878;28;20392;-66
2022/12/05 10:23:57;;;;;;;24.63;11.82;;;;;;;-7.97;64.66;102029.09;5028172;28;20041;-66
2022/12/05 10:26:43;;;;;;;16.52;8.70;;;;;;;-8.05;65.01;102025.88;5035978;28;20061;-67
2022/12/05 10:29:25;;;;;;;16.45;9.02;;;;;;;-7.72;64.30;102031.31;5031940;28;20213;-66
2022/12/05 10:32:04;;;;;;;21.30;9.00;;;;;;;-7.61;64.45;102025.59;5031491;28;20320;-68
2022/12/05 10:34:37;;;;;;;15.57;9.00;;;;;;;-7.82;63.83;102020.44;5037356;28;20057;-66
2022/12/05 10:37:17;;;;;;;14.20;8.02;;;;;;;-7.74;64.47;102032.81;5025055;28;20026;-66
2022/12/05 10:39:44;;;;;;;13.07;8.20;;;;;;;-7.85;63.85;102025.19;5042697;28;20282;-68
2022/12/05 10:42:16;;;;;;;14.15;8.43;;;;;;;-7.75;63.97;102026.00;5023925;28;20030;-67
2022/12/05 10:44:43;;;;;;;16.73;8.13;;;;;;;-7.95;64.08;102030.13;5022631;28;20326;-68
2022/12/05 10:47:09;;;;;;;15.43;8.52;;;;;;;-7.89;64.13;102023.13;5033390;28;20025;-67
2022/12/05 10:49:36;;;;;;;14.00;7.85;;;;;;;-8.18;63.87;101993.72;5036268;28;20326;-67
2022/12/05 10:52:03;;;;;;;13.20;8.27;;;;;;;-8.16;64.48;101997.25;5024166;28;20223;-67
2022/12/05 10:54:35;;;;;;;17.63;8.05;;;;;;;-8.10;64.42;102016.16;5042333;28;20029;-66
2022/12/05 10:57:18;;;;;;;12.63;8.43;;;;;;;-7.96;65.93;102025.84;5024993;28;20093;-67
2022/12/05 10:59:46;;;;;;;16.17;9.43;;;;;;;-7.76;65.27;102044.38;5022774;28;20089;-67
2022/12/05 11:02:30;;;;;;;12.98;8.02;;;;;;;-8.08;64.49;102015.56;5033558;28;20206;-67
2022/12/05 11:05:02;;;;;;;14.75;8.20;;;;;;;-8.07;65.17;102023.97;5033705;28;20033;-67
2022/12/05 11:07:43;;;;;;;13.27;7.53;;;;;;;-7.92;65.57;101986.75;5022701;28;20302;-67
2022/12/05 11:10:21;;;;;;;16.45;8.60;;;;;;;-7.90;64.53;102013.81;5022501;28;20021;-67
2022/12/05 11:12:47;;;;;;;15.23;7.95;;;;;;;-7.84;64.66;102011.88;5021630;28;20042;-66
2022/12/05 11:15:20;;;;;;;13.05;8.23;;;;;;;-7.73;65.12;102014.47;5025850;28;20356;-66
2022/12/05 11:17:47;;;;;;;14.95;8.07;;;;;;;-7.87;64.21;102011.56;5040432;28;20344;-66
2022/12/05 11:20:19;;;;;;;18.40;7.65;;;;;;;-7.82;65.41;102006.97;5041433;28;20030;-68
2022/12/05 11:22:48;;;;;;;12.75;8.18;;;;;;;-7.84;65.09;101996.78;5029986;28;20029;-67
2022/12/05 11:25:34;;;;;;;15.90;8.40;;;;;;;-7.80;65.51;101997.94;5026260;28;20076;-68
2022/12/05 11:28:19;;;;;;;14.85;8.38;;;;;;;-7.68;64.80;101998.13;5026855;28;20021;-66
2022/12/05 11:31:11;;;;;;;17.45;8.70;;;;;;;-7.74;64.98;102010.16;5045444;28;20277;-67
2022/12/05 11:33:37;;;;;;;17.98;8.40;;;;;;;-7.82;65.14;101997.78;5025901;28;20030;-66
2022/12/05 11:36:17;;;;;;;16.25;7.97;;;;;;;-8.00;65.54;101983.56;5033306;28;20025;-66